createdAt,value
2018-11-07T00:01:47.560Z,30.45
2018-11-07T00:04:15.784Z,32.15
2018-11-07T00:06:43.948Z,28.50
2018-11-07T00:09:12.096Z,33.53
2018-11-07T00:11:40.232Z,31.23
2018-11-07T00:14:08.403Z,32.73
2018-11-07T00:16:36.552Z,32.17
2018-11-07T00:19:05.080Z,33.80
2018-11-07T00:21:33.233Z,31.50
2018-11-07T00:24:01.364Z,30.40
2018-11-07T00:26:29.604Z,30.37
2018-11-07T00:28:57.692Z,30.43
2018-11-07T00:31:25.857Z,33.00
2018-11-07T00:33:54.063Z,32.13
2018-11-07T00:36:22.196Z,31.23
2018-11-07T00:38:50.344Z,32.15
2018-11-07T00:41:18.500Z,32.28
2018-11-07T00:43:46.648Z,29.82
2018-11-07T00:46:14.799Z,33.30
2018-11-07T00:48:42.997Z,32.08
2018-11-07T00:51:11.140Z,31.00
2018-11-07T00:53:39.265Z,32.42
2018-11-07T00:56:07.395Z,33.00
2018-11-07T00:58:35.540Z,32.25
2018-11-07T01:01:03.725Z,33.73
2018-11-07T01:03:31.868Z,31.97
2018-11-07T01:06:00.013Z,32.20
2018-11-07T01:08:28.169Z,34.60
2018-11-07T01:10:56.317Z,33.42
2018-11-07T01:13:24.489Z,33.78
2018-11-07T01:15:52.641Z,31.68
2018-11-07T01:18:20.780Z,32.58
2018-11-07T01:20:48.925Z,33.33
2018-11-07T01:23:17.044Z,33.70
2018-11-07T01:25:45.188Z,33.25
2018-11-07T01:28:13.377Z,34.70
2018-11-07T01:30:41.492Z,34.03
2018-11-07T01:33:09.636Z,34.63
2018-11-07T01:35:37.774Z,31.87
2018-11-07T01:38:06.170Z,36.23
2018-11-07T01:40:34.308Z,34.67
2018-11-07T01:43:02.485Z,34.88
2018-11-07T01:45:30.592Z,34.75
2018-11-07T01:47:58.770Z,36.23
2018-11-07T01:50:26.917Z,32.63
2018-11-07T01:52:55.053Z,35.70
2018-11-07T01:55:23.189Z,34.70
2018-11-07T01:57:51.341Z,34.30
2018-11-07T02:00:19.492Z,35.88
2018-11-07T02:02:47.627Z,37.60
2018-11-07T02:05:15.793Z,36.68
2018-11-07T02:07:43.932Z,35.30
2018-11-07T02:10:12.115Z,37.00
2018-11-07T02:12:41.228Z,35.92
2018-11-07T02:15:10.247Z,40.80
2018-11-07T02:17:38.399Z,37.50
2018-11-07T02:20:07.819Z,37.85
2018-11-07T02:22:36.004Z,37.20
2018-11-07T02:25:04.216Z,35.45
2018-11-07T02:27:32.365Z,37.08
2018-11-07T02:30:00.521Z,38.35
2018-11-07T02:32:28.690Z,38.53
2018-11-07T02:34:56.857Z,39.13
2018-11-07T02:37:25.017Z,37.30
2018-11-07T02:39:53.168Z,38.08
2018-11-07T02:42:21.320Z,38.28
2018-11-07T02:44:49.469Z,35.60
2018-11-07T02:47:17.651Z,38.38
2018-11-07T02:49:45.799Z,38.25
2018-11-07T02:52:13.966Z,38.13
2018-11-07T02:54:42.872Z,39.73
2018-11-07T02:57:11.024Z,41.20
2018-11-07T02:59:39.179Z,38.67
2018-11-07T03:02:07.284Z,40.00
2018-11-07T03:04:35.559Z,39.20
2018-11-07T03:07:03.730Z,39.30
2018-11-07T03:09:31.872Z,42.60
2018-11-07T03:12:00.037Z,41.35
2018-11-07T03:14:28.252Z,41.53
2018-11-07T03:16:56.400Z,40.75
2018-11-07T03:19:24.563Z,40.30
2018-11-07T03:21:52.708Z,38.53
2018-11-07T03:24:20.856Z,40.55
2018-11-07T03:26:49.012Z,42.25
2018-11-07T03:29:17.164Z,44.50
2018-11-07T03:31:45.284Z,39.45
2018-11-07T03:34:13.432Z,42.30
2018-11-07T03:36:41.587Z,40.17
2018-11-07T03:39:10.748Z,40.88
2018-11-07T03:41:38.956Z,39.45
2018-11-07T03:44:08.075Z,39.15
2018-11-07T03:46:36.232Z,42.27
2018-11-07T03:49:04.556Z,43.63
2018-11-07T03:51:32.700Z,41.30
2018-11-07T03:54:00.856Z,43.70
2018-11-07T03:56:28.972Z,40.17
2018-11-07T03:58:57.224Z,40.12
2018-11-07T04:01:25.377Z,44.73
2018-11-07T04:03:53.520Z,41.73
2018-11-07T04:06:21.687Z,42.53
2018-11-07T04:08:49.819Z,43.35
2018-11-07T04:11:18.052Z,42.05
2018-11-07T04:13:46.204Z,43.33
2018-11-07T04:16:14.350Z,41.45
2018-11-07T04:18:42.529Z,42.70
2018-11-07T04:21:10.708Z,44.08
2018-11-07T04:23:38.834Z,45.67
2018-11-07T04:26:07.082Z,41.33
2018-11-07T04:28:35.241Z,44.15
2018-11-07T04:31:03.401Z,44.35
2018-11-07T04:33:31.589Z,43.45
2018-11-07T04:35:59.746Z,42.78
2018-11-07T04:38:27.909Z,40.67
2018-11-07T04:40:56.060Z,45.60
2018-11-07T04:43:24.208Z,43.65
2018-11-07T04:45:52.336Z,41.83
2018-11-07T04:48:20.526Z,43.73
2018-11-07T04:50:48.696Z,42.90
2018-11-07T04:53:16.893Z,44.77
2018-11-07T04:55:45.104Z,43.58
2018-11-07T04:58:13.244Z,42.38
2018-11-07T05:00:41.347Z,44.65
2018-11-07T05:03:09.545Z,46.45
2018-11-07T05:05:37.712Z,41.28
2018-11-07T05:08:05.855Z,44.42
2018-11-07T05:10:34.003Z,44.03
2018-11-07T05:13:02.214Z,43.42
2018-11-07T05:15:30.348Z,44.20
2018-11-07T05:17:58.472Z,45.17
2018-11-07T05:20:26.624Z,50.20
2018-11-07T05:22:54.823Z,51.30
2018-11-07T05:25:22.944Z,45.45
2018-11-07T05:27:51.100Z,47.15
2018-11-07T05:30:19.260Z,46.55
2018-11-07T05:32:47.566Z,42.45
2018-11-07T05:35:15.718Z,46.18
2018-11-07T05:37:43.844Z,47.27
2018-11-07T05:40:11.993Z,45.48
2018-11-07T05:42:40.111Z,46.00
2018-11-07T05:45:08.367Z,42.35
2018-11-07T05:47:36.518Z,44.60
2018-11-07T05:50:06.103Z,45.48
2018-11-07T05:52:34.344Z,46.90
2018-11-07T05:55:02.543Z,47.48
2018-11-07T05:57:30.773Z,47.17
2018-11-07T05:59:58.938Z,46.05
2018-11-07T06:02:27.161Z,43.30
2018-11-07T06:04:55.345Z,54.75
2018-11-07T06:07:23.509Z,48.87
2018-11-07T06:09:51.767Z,45.73
2018-11-07T06:12:19.956Z,50.98
2018-11-07T06:14:48.109Z,50.83
2018-11-07T06:17:16.399Z,43.83
2018-11-07T06:19:44.566Z,44.38
2018-11-07T06:22:12.684Z,47.88
2018-11-07T06:24:40.860Z,46.45
2018-11-07T06:27:09.060Z,48.98
2018-11-07T06:29:37.247Z,45.98
2018-11-07T06:32:05.421Z,53.25
2018-11-07T06:34:33.774Z,47.38
2018-11-07T06:37:01.969Z,46.80
2018-11-07T06:39:30.260Z,47.98
2018-11-07T06:41:59.172Z,48.52
2018-11-07T06:44:27.407Z,42.40
2018-11-07T06:46:55.531Z,48.45
2018-11-07T06:49:23.695Z,50.10
2018-11-07T06:51:51.926Z,44.05
2018-11-07T06:54:20.078Z,52.50
2018-11-07T06:56:48.332Z,43.78
2018-11-07T06:59:16.563Z,50.92
2018-11-07T07:01:44.758Z,47.13
2018-11-07T07:04:12.946Z,47.58
2018-11-07T07:06:41.096Z,47.73
2018-11-07T07:09:09.964Z,48.40
2018-11-07T07:11:38.112Z,48.38
2018-11-07T07:14:06.751Z,50.35
2018-11-07T07:16:35.104Z,52.83
2018-11-07T07:19:03.519Z,47.55
2018-11-07T07:21:31.720Z,47.73
2018-11-07T07:23:59.977Z,45.08
2018-11-07T07:26:28.201Z,51.53
2018-11-07T07:28:56.412Z,46.00
2018-11-07T07:31:24.600Z,56.23
2018-11-07T07:33:52.749Z,48.02
2018-11-07T07:36:20.914Z,47.75
2018-11-07T07:38:49.052Z,49.98
2018-11-07T07:41:17.220Z,46.15
2018-11-07T07:43:45.363Z,46.60
2018-11-07T07:46:13.509Z,46.45
2018-11-07T07:48:41.642Z,46.53
2018-11-07T07:51:09.768Z,43.63
2018-11-07T07:53:37.901Z,44.93
2018-11-07T07:56:06.044Z,44.70
2018-11-07T07:58:34.176Z,44.88
2018-11-07T08:01:02.347Z,46.77
2018-11-07T08:03:31.573Z,44.48
2018-11-07T08:05:59.704Z,44.53
2018-11-07T08:08:27.838Z,44.13
2018-11-07T08:10:55.984Z,37.93
2018-11-07T08:13:24.147Z,39.58
2018-11-07T08:15:52.291Z,39.65
2018-11-07T08:18:20.436Z,39.67
2018-11-07T08:20:48.560Z,37.40
2018-11-07T08:23:16.711Z,37.73
2018-11-07T08:25:44.844Z,37.58
2018-11-07T08:28:12.980Z,41.13
2018-11-07T08:30:41.134Z,39.63
2018-11-07T08:33:09.287Z,41.30
2018-11-07T08:35:37.413Z,38.20
2018-11-07T08:38:05.848Z,39.95
2018-11-07T08:40:33.987Z,37.65
2018-11-07T08:43:02.131Z,37.30
2018-11-07T08:45:30.268Z,40.63
2018-11-07T08:47:58.409Z,38.90
2018-11-07T08:50:26.528Z,42.70
2018-11-07T08:52:54.696Z,36.70
2018-11-07T08:55:23.415Z,40.00
2018-11-07T08:57:51.592Z,37.10
2018-11-07T09:00:20.940Z,35.80
2018-11-07T09:02:49.074Z,40.40
2018-11-07T09:05:18.055Z,36.98
2018-11-07T09:07:46.743Z,37.80
2018-11-07T09:10:17.695Z,38.57
2018-11-07T09:12:45.800Z,37.07
2018-11-07T09:15:16.077Z,37.15
2018-11-07T09:17:44.203Z,37.57
2018-11-07T09:20:16.498Z,39.40
2018-11-07T09:22:44.625Z,36.10
2018-11-07T09:25:13.470Z,36.73
2018-11-07T09:27:41.802Z,34.67
2018-11-07T09:30:11.869Z,35.20
2018-11-07T09:32:40.073Z,35.03
2018-11-07T09:35:09.561Z,35.77
2018-11-07T09:37:37.842Z,39.43
2018-11-07T09:40:10.276Z,34.47
2018-11-07T09:42:39.308Z,33.43
2018-11-07T09:45:08.693Z,35.23
2018-11-07T09:47:36.870Z,36.27
2018-11-07T09:50:06.247Z,35.60
2018-11-07T09:52:34.352Z,35.67
2018-11-07T09:55:02.518Z,33.30
2018-11-07T09:57:30.632Z,38.00
2018-11-07T09:59:58.766Z,34.83
2018-11-07T10:02:26.864Z,35.50
2018-11-07T10:04:54.997Z,36.30
2018-11-07T10:07:23.098Z,37.00
2018-11-07T10:09:51.195Z,33.43
2018-11-07T10:12:19.328Z,39.83
2018-11-07T10:14:47.397Z,33.07
2018-11-07T10:17:15.503Z,37.10
2018-11-07T10:19:43.621Z,35.93
2018-11-07T10:22:11.747Z,37.53
2018-11-07T10:24:39.869Z,36.27
2018-11-07T10:27:08.244Z,39.43
2018-11-07T10:29:36.603Z,36.97
2018-11-07T10:32:04.881Z,40.10
2018-11-07T10:34:33.061Z,36.20
2018-11-07T10:37:01.400Z,33.37
2018-11-07T10:39:29.529Z,36.53
2018-11-07T10:41:57.853Z,37.70
2018-11-07T10:44:26.030Z,36.07
2018-11-07T10:46:54.097Z,38.33
2018-11-07T10:49:22.216Z,36.17
2018-11-07T10:51:50.358Z,34.93
2018-11-07T10:54:18.443Z,35.43
2018-11-07T10:56:46.640Z,37.13
2018-11-07T10:59:14.762Z,36.67
2018-11-07T11:01:48.263Z,35.53
2018-11-07T11:04:16.363Z,34.30
2018-11-07T11:06:44.467Z,35.80
2018-11-07T11:09:12.568Z,36.93
2018-11-07T11:11:40.742Z,37.17
2018-11-07T11:14:09.217Z,36.93
2018-11-07T11:16:37.363Z,37.80
2018-11-07T11:19:05.854Z,39.15
2018-11-07T11:21:33.980Z,39.15
2018-11-07T11:24:02.109Z,38.65
2018-11-07T11:26:30.209Z,39.10
2018-11-07T11:28:58.350Z,35.40
2018-11-07T11:31:26.473Z,35.07
2018-11-07T11:33:54.597Z,36.03
2018-11-07T11:36:22.665Z,38.17
2018-11-07T11:38:50.796Z,35.13
2018-11-07T11:41:19.047Z,37.70
2018-11-07T11:43:47.068Z,37.15
2018-11-07T11:46:15.193Z,37.50
2018-11-07T11:48:43.370Z,41.77
2018-11-07T11:51:11.513Z,40.15
2018-11-07T11:53:39.956Z,37.63
2018-11-07T11:56:08.135Z,35.58
2018-11-07T11:58:36.258Z,39.83
2018-11-07T12:01:04.388Z,39.55
2018-11-07T12:03:32.551Z,39.10
2018-11-07T12:06:00.691Z,39.50
2018-11-07T12:08:28.944Z,36.08
2018-11-07T12:10:56.980Z,38.23
2018-11-07T12:13:25.168Z,40.48
2018-11-07T12:15:53.288Z,37.90
2018-11-07T12:18:21.422Z,39.73
2018-11-07T12:20:49.560Z,38.95
2018-11-07T12:23:17.693Z,36.23
2018-11-07T12:25:45.842Z,36.73
2018-11-07T12:28:13.984Z,35.55
2018-11-07T12:30:42.112Z,35.95
2018-11-07T12:33:10.233Z,39.63
2018-11-07T12:35:38.397Z,35.33
2018-11-07T12:38:06.522Z,36.88
2018-11-07T12:40:34.652Z,35.95
2018-11-07T12:43:02.816Z,33.40
2018-11-07T12:45:30.941Z,34.98
2018-11-07T12:47:59.094Z,33.75
2018-11-07T12:50:27.278Z,33.15
2018-11-07T12:52:55.393Z,34.58
2018-11-07T12:55:23.565Z,33.63
2018-11-07T12:57:51.726Z,36.13
2018-11-07T13:00:21.655Z,34.20
2018-11-07T13:02:49.844Z,32.80
2018-11-07T13:05:19.060Z,34.58
2018-11-07T13:07:48.040Z,33.83
2018-11-07T13:10:17.324Z,33.40
2018-11-07T13:12:46.039Z,33.78
2018-11-07T13:15:14.784Z,33.60
2018-11-07T13:17:43.192Z,34.15
2018-11-07T13:20:14.736Z,34.10
2018-11-07T13:22:43.840Z,33.97
2018-11-07T13:25:12.500Z,31.43
2018-11-07T13:27:40.643Z,35.50
2018-11-07T13:30:10.839Z,35.28
2018-11-07T13:32:39.044Z,33.95
2018-11-07T13:35:07.999Z,36.53
2018-11-07T13:37:36.445Z,36.08
2018-11-07T13:40:06.851Z,36.58
2018-11-07T13:42:34.973Z,36.15
2018-11-07T13:45:03.136Z,37.58
2018-11-07T13:47:31.277Z,37.80
2018-11-07T13:49:59.429Z,36.42
2018-11-07T13:52:27.570Z,37.78
2018-11-07T13:54:56.223Z,35.78
2018-11-07T13:57:24.353Z,37.25
2018-11-07T13:59:52.500Z,36.08
2018-11-07T14:02:20.720Z,37.15
2018-11-07T14:04:48.871Z,38.00
2018-11-07T14:07:17.036Z,36.42
2018-11-07T14:09:45.162Z,39.80
2018-11-07T14:12:13.312Z,35.58
2018-11-07T14:14:41.508Z,38.55
2018-11-07T14:17:09.664Z,36.73
2018-11-07T14:19:37.778Z,39.23
2018-11-07T14:22:05.907Z,39.98
2018-11-07T14:24:34.027Z,39.98
2018-11-07T14:27:02.164Z,38.38
2018-11-07T14:29:31.605Z,44.03
2018-11-07T14:31:59.756Z,46.18
2018-11-07T14:34:27.892Z,43.33
2018-11-07T14:36:56.091Z,49.25
2018-11-07T14:39:24.168Z,50.65
2018-11-07T14:41:52.299Z,48.15
2018-11-07T14:44:20.420Z,48.90
2018-11-07T14:46:48.601Z,55.58
2018-11-07T14:49:16.772Z,53.75
2018-11-07T14:51:44.924Z,53.92
2018-11-07T14:54:13.077Z,64.25
2018-11-07T14:56:41.200Z,58.15
2018-11-07T14:59:09.360Z,59.67
2018-11-07T15:01:37.606Z,65.12
2018-11-07T15:04:05.640Z,64.72
2018-11-07T15:06:33.753Z,68.67
2018-11-07T15:09:01.891Z,63.52
2018-11-07T15:11:30.083Z,68.10
2018-11-07T15:13:58.583Z,64.87
2018-11-07T15:16:26.717Z,62.78
2018-11-07T15:18:54.845Z,61.05
2018-11-07T15:21:23.192Z,65.87
2018-11-07T15:23:51.317Z,60.08
2018-11-07T15:26:19.436Z,62.08
2018-11-07T15:28:47.568Z,53.52
2018-11-07T15:31:15.707Z,55.43
2018-11-07T15:33:43.912Z,56.42
2018-11-07T15:36:12.160Z,59.38
2018-11-07T15:38:40.242Z,59.75
2018-11-07T15:41:08.351Z,55.95
2018-11-07T15:43:36.543Z,62.73
2018-11-07T15:46:04.799Z,60.73
2018-11-07T15:48:32.959Z,56.68
2018-11-07T15:51:06.616Z,57.83
2018-11-07T15:53:34.961Z,63.42
2018-11-07T15:56:03.100Z,63.90
2018-11-07T15:58:32.667Z,58.25
2018-11-07T16:01:00.774Z,60.73
2018-11-07T16:03:34.255Z,56.45
2018-11-07T16:06:02.630Z,62.33
2018-11-07T16:08:30.882Z,57.17
2018-11-07T16:10:59.023Z,54.80
2018-11-07T16:13:27.270Z,53.28
2018-11-07T16:15:55.391Z,57.45
2018-11-07T16:18:23.521Z,60.45
2018-11-07T16:20:51.664Z,55.00
2018-11-07T16:23:19.815Z,63.80
2018-11-07T16:25:47.967Z,57.10
2018-11-07T16:28:16.081Z,53.10
2018-11-07T16:30:44.220Z,62.38
2018-11-07T16:33:12.381Z,56.92
2018-11-07T16:35:40.506Z,58.90
2018-11-07T16:38:08.637Z,54.85
2018-11-07T16:40:36.818Z,54.38
2018-11-07T16:43:05.380Z,58.73
2018-11-07T16:45:33.517Z,57.10
2018-11-07T16:48:01.654Z,62.73
2018-11-07T16:50:29.916Z,54.83
2018-11-07T16:52:58.089Z,58.17
2018-11-07T16:55:26.220Z,56.95
2018-11-07T16:57:54.390Z,53.30
2018-11-07T17:00:22.617Z,55.10
2018-11-07T17:02:50.891Z,56.90
2018-11-07T17:05:19.463Z,57.70
2018-11-07T17:07:47.783Z,55.17
2018-11-07T17:10:16.312Z,51.92
2018-11-07T17:12:44.512Z,56.50
2018-11-07T17:15:12.688Z,55.50
2018-11-07T17:17:40.809Z,58.23
2018-11-07T17:20:10.247Z,55.78
2018-11-07T17:22:38.432Z,54.73
2018-11-07T17:25:08.576Z,60.75
2018-11-07T17:27:36.755Z,60.90
2018-11-07T17:30:05.758Z,52.53
2018-11-07T17:32:33.920Z,55.50
2018-11-07T17:35:02.053Z,54.05
2018-11-07T17:37:30.224Z,57.15
2018-11-07T17:39:58.335Z,62.70
2018-11-07T17:42:26.462Z,58.15
2018-11-07T17:44:54.583Z,56.63
2018-11-07T17:47:22.697Z,58.42
2018-11-07T17:49:50.827Z,52.35
2018-11-07T17:52:18.965Z,51.73
2018-11-07T17:54:47.123Z,57.75
2018-11-07T17:57:16.446Z,52.30
2018-11-07T17:59:44.664Z,53.73
2018-11-07T18:02:13.272Z,57.58
2018-11-07T18:04:42.148Z,55.85
2018-11-07T18:07:10.304Z,60.12
2018-11-07T18:09:38.470Z,60.73
2018-11-07T18:12:06.620Z,58.48
2018-11-07T18:14:34.717Z,58.85
2018-11-07T18:17:02.867Z,65.55
2018-11-07T18:19:31.075Z,59.00
2018-11-07T18:21:59.159Z,57.38
2018-11-07T18:24:27.289Z,60.00
2018-11-07T18:26:56.492Z,54.95
2018-11-07T18:29:24.612Z,54.15
2018-11-07T18:31:52.776Z,59.93
2018-11-07T18:34:21.000Z,68.95
2018-11-07T18:36:49.109Z,66.00
2018-11-07T18:39:17.265Z,65.32
2018-11-07T18:41:45.368Z,61.70
2018-11-07T18:44:13.640Z,67.82
2018-11-07T18:46:41.763Z,67.45
2018-11-07T18:49:09.903Z,70.75
2018-11-07T18:51:38.048Z,62.80
2018-11-07T18:54:06.242Z,65.37
2018-11-07T18:56:34.352Z,62.45
2018-11-07T18:59:02.533Z,62.80
2018-11-07T19:01:30.644Z,70.28
2018-11-07T19:03:58.782Z,58.00
2018-11-07T19:06:27.090Z,67.03
2018-11-07T19:08:55.222Z,71.25
2018-11-07T19:11:23.420Z,67.30
2018-11-07T19:13:51.550Z,65.65
2018-11-07T19:16:19.736Z,66.80
2018-11-07T19:18:47.876Z,68.02
2018-11-07T19:21:15.988Z,64.92
2018-11-07T19:23:44.286Z,72.10
2018-11-07T19:26:12.379Z,78.40
2018-11-07T19:28:40.600Z,67.72
2018-11-07T19:31:08.717Z,69.15
2018-11-07T19:33:36.824Z,72.35
2018-11-07T19:36:05.159Z,63.65
2018-11-07T19:38:33.280Z,67.27
2018-11-07T19:41:01.445Z,74.50
2018-11-07T19:43:29.603Z,72.17
2018-11-07T19:45:57.724Z,67.62
2018-11-07T19:48:25.876Z,61.40
2018-11-07T19:50:54.016Z,76.65
2018-11-07T19:53:22.137Z,73.02
2018-11-07T19:55:50.368Z,71.12
2018-11-07T19:58:19.268Z,73.15
2018-11-07T20:00:47.514Z,63.75
2018-11-07T20:03:15.656Z,68.57
2018-11-07T20:05:43.799Z,67.80
2018-11-07T20:08:11.929Z,67.97
2018-11-07T20:10:40.056Z,65.28
2018-11-07T20:13:08.192Z,68.50
2018-11-07T20:15:36.301Z,65.37
2018-11-07T20:18:04.448Z,75.80
2018-11-07T20:20:32.622Z,80.80
2018-11-07T20:23:00.810Z,67.65
2018-11-07T20:25:29.021Z,67.03
2018-11-07T20:27:57.148Z,84.50
2018-11-07T20:30:25.292Z,74.95
2018-11-07T20:32:53.415Z,64.12
2018-11-07T20:35:22.516Z,67.75
2018-11-07T20:37:50.647Z,67.40
2018-11-07T20:40:19.968Z,67.97
2018-11-07T20:42:48.148Z,78.80
2018-11-07T20:45:16.992Z,85.55
2018-11-07T20:47:45.515Z,71.62
2018-11-07T20:50:15.100Z,74.95
2018-11-07T20:52:43.619Z,78.80
2018-11-07T20:55:12.659Z,69.45
2018-11-07T20:57:40.855Z,74.10
2018-11-07T21:00:11.992Z,73.70
2018-11-07T21:02:40.636Z,65.37
2018-11-07T21:05:09.075Z,82.57
2018-11-07T21:07:37.736Z,80.12
2018-11-07T21:10:08.029Z,88.10
2018-11-07T21:12:36.179Z,73.35
2018-11-07T21:15:05.103Z,67.58
2018-11-07T21:17:33.224Z,64.60
2018-11-07T21:20:01.387Z,69.42
2018-11-07T21:22:29.589Z,90.25
2018-11-07T21:24:57.760Z,69.65
2018-11-07T21:27:25.938Z,63.95
2018-11-07T21:29:54.080Z,82.60
2018-11-07T21:32:22.276Z,67.55
2018-11-07T21:34:50.469Z,73.75
2018-11-07T21:37:18.616Z,74.80
2018-11-07T21:39:46.913Z,68.75
2018-11-07T21:42:15.072Z,86.85
2018-11-07T21:44:43.335Z,69.97
2018-11-07T21:47:11.440Z,71.05
2018-11-07T21:49:39.564Z,96.12
2018-11-07T21:52:07.992Z,68.33
2018-11-07T21:54:36.217Z,66.95
2018-11-07T21:57:04.390Z,69.45
2018-11-07T21:59:39.047Z,88.87
2018-11-07T22:02:07.130Z,74.87
2018-11-07T22:04:35.247Z,69.95
2018-11-07T22:07:03.443Z,80.70
2018-11-07T22:09:31.563Z,81.57
2018-11-07T22:11:59.779Z,69.17
2018-11-07T22:14:27.943Z,84.55
2018-11-07T22:16:56.065Z,70.40
2018-11-07T22:19:24.260Z,72.05
2018-11-07T22:21:52.391Z,88.35
2018-11-07T22:24:20.760Z,71.15
2018-11-07T22:26:48.877Z,70.00
2018-11-07T22:29:19.250Z,86.85
2018-11-07T22:31:48.695Z,78.25
2018-11-07T22:34:16.864Z,81.87
2018-11-07T22:36:45.008Z,71.53
2018-11-07T22:39:14.225Z,77.40
2018-11-07T22:41:43.231Z,92.42
2018-11-07T22:44:11.347Z,75.35
2018-11-07T22:46:39.647Z,84.77
2018-11-07T22:49:07.856Z,74.42
2018-11-07T22:51:36.147Z,82.50
2018-11-07T22:54:04.715Z,76.35
2018-11-07T22:56:32.962Z,84.97
2018-11-07T22:59:01.109Z,74.62
2018-11-07T23:01:34.740Z,77.50
2018-11-07T23:04:02.948Z,81.00
2018-11-07T23:06:31.072Z,71.72
2018-11-07T23:08:59.199Z,73.12
2018-11-07T23:11:27.348Z,82.05
2018-11-07T23:13:55.520Z,63.55
2018-11-07T23:16:23.632Z,64.97
2018-11-07T23:18:51.748Z,69.37
2018-11-07T23:21:19.856Z,84.00
2018-11-07T23:23:47.995Z,72.85
2018-11-07T23:26:16.108Z,78.78
2018-11-07T23:28:44.233Z,70.08
2018-11-07T23:31:12.348Z,72.27
2018-11-07T23:33:40.488Z,73.07
2018-11-07T23:36:08.644Z,72.75
2018-11-07T23:38:36.755Z,85.35
2018-11-07T23:41:05.341Z,83.00
2018-11-07T23:43:33.438Z,86.32
2018-11-07T23:46:01.570Z,82.50
2018-11-07T23:48:29.696Z,80.57
2018-11-07T23:51:03.519Z,74.55
2018-11-07T23:53:31.659Z,89.40
2018-11-07T23:55:59.764Z,82.70
2018-11-07T23:58:27.899Z,70.57
